sensor_id;sensor_type;location;lat;lon;timestamp;pressure;altitude;pressure_sealevel;temperature;humidity
45441;BME280;31189;38.790;-77.084;2022-07-17T00:01:23;101486.55;;;26.58;99.76
45441;BME280;31189;38.790;-77.084;2022-07-17T00:03:51;101482.95;;;26.11;100.00
45441;BME280;31189;38.790;-77.084;2022-07-17T00:06:19;101474.94;;;26.29;100.00
45441;BME280;31189;38.790;-77.084;2022-07-17T00:08:47;101467.96;;;25.73;100.00
45441;BME280;31189;38.790;-77.084;2022-07-17T00:11:14;101471.49;;;25.59;100.00
45441;BME280;31189;38.790;-77.084;2022-07-17T00:13:42;101475.85;;;24.56;100.00
45441;BME280;31189;38.790;-77.084;2022-07-17T00:16:09;101468.33;;;24.57;100.00
45441;BME280;31189;38.790;-77.084;2022-07-17T00:18:37;101462.81;;;25.54;100.00
45441;BME280;31189;38.790;-77.084;2022-07-17T00:21:05;101465.35;;;25.29;100.00
45441;BME280;31189;38.790;-77.084;2022-07-17T00:23:33;101455.26;;;25.49;100.00
45441;BME280;31189;38.790;-77.084;2022-07-17T00:26:01;101458.82;;;25.38;100.00
45441;BME280;31189;38.790;-77.084;2022-07-17T00:28:29;101456.85;;;25.88;100.00
45441;BME280;31189;38.790;-77.084;2022-07-17T00:30:57;101456.22;;;25.73;100.00
45441;BME280;31189;38.790;-77.084;2022-07-17T00:33:25;101452.63;;;25.50;100.00
45441;BME280;31189;38.790;-77.084;2022-07-17T00:35:53;101451.46;;;25.92;100.00
45441;BME280;31189;38.790;-77.084;2022-07-17T00:38:22;101447.40;;;26.12;100.00
45441;BME280;31189;38.790;-77.084;2022-07-17T00:40:52;101454.02;;;26.03;100.00
45441;BME280;31189;38.790;-77.084;2022-07-17T00:43:21;101463.83;;;25.18;100.00
45441;BME280;31189;38.790;-77.084;2022-07-17T00:46:01;101454.52;;;25.63;100.00
45441;BME280;31189;38.790;-77.084;2022-07-17T00:48:29;101455.21;;;25.29;100.00
45441;BME280;31189;38.790;-77.084;2022-07-17T00:51:06;101466.95;;;24.50;100.00
45441;BME280;31189;38.790;-77.084;2022-07-17T00:53:36;101470.32;;;26.17;100.00
45441;BME280;31189;38.790;-77.084;2022-07-17T00:56:05;101475.62;;;26.14;100.00
45441;BME280;31189;38.790;-77.084;2022-07-17T00:58:35;101481.70;;;25.77;100.00
45441;BME280;31189;38.790;-77.084;2022-07-17T01:01:05;101482.76;;;25.27;100.00
45441;BME280;31189;38.790;-77.084;2022-07-17T01:03:33;101475.74;;;26.11;100.00
45441;BME280;31189;38.790;-77.084;2022-07-17T01:06:02;101473.10;;;26.19;100.00
45441;BME280;31189;38.790;-77.084;2022-07-17T01:08:30;101479.13;;;25.74;100.00
45441;BME280;31189;38.790;-77.084;2022-07-17T01:10:59;101480.20;;;25.99;100.00
45441;BME280;31189;38.790;-77.084;2022-07-17T01:13:28;101474.35;;;25.92;100.00
45441;BME280;31189;38.790;-77.084;2022-07-17T01:15:56;101465.60;;;26.18;100.00
45441;BME280;31189;38.790;-77.084;2022-07-17T01:18:24;101465.74;;;25.91;100.00
45441;BME280;31189;38.790;-77.084;2022-07-17T01:20:52;101467.66;;;25.93;100.00
45441;BME280;31189;38.790;-77.084;2022-07-17T01:23:20;101466.69;;;26.28;100.00
45441;BME280;31189;38.790;-77.084;2022-07-17T01:25:48;101463.13;;;26.44;100.00
45441;BME280;31189;38.790;-77.084;2022-07-17T01:28:16;101463.70;;;26.61;100.00
45441;BME280;31189;38.790;-77.084;2022-07-17T01:30:47;101466.57;;;26.97;100.00
45441;BME280;31189;38.790;-77.084;2022-07-17T01:33:15;101472.64;;;27.10;100.00
45441;BME280;31189;38.790;-77.084;2022-07-17T01:35:44;101479.44;;;27.15;100.00
45441;BME280;31189;38.790;-77.084;2022-07-17T01:38:11;101483.11;;;26.69;99.76
45441;BME280;31189;38.790;-77.084;2022-07-17T01:40:39;101484.51;;;26.63;100.00
45441;BME280;31189;38.790;-77.084;2022-07-17T01:43:06;101487.83;;;26.65;100.00
45441;BME280;31189;38.790;-77.084;2022-07-17T01:45:34;101490.32;;;26.64;100.00
45441;BME280;31189;38.790;-77.084;2022-07-17T01:48:02;101491.63;;;26.86;99.84
45441;BME280;31189;38.790;-77.084;2022-07-17T01:50:30;101495.54;;;26.72;100.00
45441;BME280;31189;38.790;-77.084;2022-07-17T01:52:58;101503.74;;;26.35;100.00
45441;BME280;31189;38.790;-77.084;2022-07-17T01:55:26;101505.65;;;27.04;99.16
45441;BME280;31189;38.790;-77.084;2022-07-17T01:57:53;101500.44;;;27.12;99.41
45441;BME280;31189;38.790;-77.084;2022-07-17T02:00:21;101507.03;;;26.59;99.02
45441;BME280;31189;38.790;-77.084;2022-07-17T02:02:49;101516.24;;;25.73;100.00
45441;BME280;31189;38.790;-77.084;2022-07-17T02:05:17;101510.51;;;26.07;100.00
45441;BME280;31189;38.790;-77.084;2022-07-17T02:07:45;101513.42;;;25.76;100.00
45441;BME280;31189;38.790;-77.084;2022-07-17T02:10:13;101517.16;;;25.88;100.00
45441;BME280;31189;38.790;-77.084;2022-07-17T02:12:42;101515.66;;;25.33;100.00
45441;BME280;31189;38.790;-77.084;2022-07-17T02:15:10;101511.94;;;26.30;100.00
45441;BME280;31189;38.790;-77.084;2022-07-17T02:17:38;101511.53;;;26.40;100.00
45441;BME280;31189;38.790;-77.084;2022-07-17T02:20:07;101511.31;;;26.31;100.00
45441;BME280;31189;38.790;-77.084;2022-07-17T02:22:36;101505.03;;;26.66;100.00
45441;BME280;31189;38.790;-77.084;2022-07-17T02:25:06;101504.46;;;26.65;100.00
45441;BME280;31189;38.790;-77.084;2022-07-17T02:27:33;101510.97;;;27.07;100.00
45441;BME280;31189;38.790;-77.084;2022-07-17T02:30:02;101514.74;;;27.18;100.00
45441;BME280;31189;38.790;-77.084;2022-07-17T02:32:31;101514.29;;;26.61;100.00
45441;BME280;31189;38.790;-77.084;2022-07-17T02:34:58;101518.28;;;26.51;100.00
45441;BME280;31189;38.790;-77.084;2022-07-17T02:37:26;101523.04;;;27.16;100.00
45441;BME280;31189;38.790;-77.084;2022-07-17T02:39:54;101528.20;;;26.90;100.00
45441;BME280;31189;38.790;-77.084;2022-07-17T02:42:24;101535.39;;;27.18;100.00
45441;BME280;31189;38.790;-77.084;2022-07-17T02:44:53;101537.16;;;27.06;100.00
45441;BME280;31189;38.790;-77.084;2022-07-17T02:47:23;101538.61;;;26.58;100.00
45441;BME280;31189;38.790;-77.084;2022-07-17T02:49:52;101536.50;;;26.25;100.00
45441;BME280;31189;38.790;-77.084;2022-07-17T02:52:20;101540.23;;;27.02;100.00
45441;BME280;31189;38.790;-77.084;2022-07-17T02:54:48;101540.43;;;27.21;100.00
45441;BME280;31189;38.790;-77.084;2022-07-17T02:57:16;101543.15;;;27.25;99.35
45441;BME280;31189;38.790;-77.084;2022-07-17T02:59:45;101540.35;;;26.59;100.00
45441;BME280;31189;38.790;-77.084;2022-07-17T03:02:13;101545.02;;;26.96;100.00
45441;BME280;31189;38.790;-77.084;2022-07-17T03:04:41;101549.93;;;27.13;100.00
45441;BME280;31189;38.790;-77.084;2022-07-17T03:07:09;101557.44;;;27.46;98.92
45441;BME280;31189;38.790;-77.084;2022-07-17T03:09:37;101555.33;;;27.77;99.04
45441;BME280;31189;38.790;-77.084;2022-07-17T03:12:06;101551.07;;;27.72;98.71
45441;BME280;31189;38.790;-77.084;2022-07-17T03:14:34;101545.90;;;27.48;99.31
45441;BME280;31189;38.790;-77.084;2022-07-17T03:17:01;101543.70;;;27.20;98.43
45441;BME280;31189;38.790;-77.084;2022-07-17T03:19:29;101542.26;;;27.14;98.99
45441;BME280;31189;38.790;-77.084;2022-07-17T03:22:03;101540.87;;;26.96;99.11
45441;BME280;31189;38.790;-77.084;2022-07-17T03:24:31;101537.33;;;27.34;98.86
45441;BME280;31189;38.790;-77.084;2022-07-17T03:26:59;101533.68;;;26.82;98.88
45441;BME280;31189;38.790;-77.084;2022-07-17T03:29:26;101534.23;;;26.67;98.45
45441;BME280;31189;38.790;-77.084;2022-07-17T03:31:55;101533.71;;;27.47;97.67
45441;BME280;31189;38.790;-77.084;2022-07-17T03:34:23;101528.26;;;27.37;98.80
45441;BME280;31189;38.790;-77.084;2022-07-17T03:36:51;101529.33;;;27.37;97.50
45441;BME280;31189;38.790;-77.084;2022-07-17T03:39:19;101526.13;;;27.08;99.05
45441;BME280;31189;38.790;-77.084;2022-07-17T03:41:47;101529.90;;;27.14;99.16
45441;BME280;31189;38.790;-77.084;2022-07-17T03:44:15;101537.97;;;26.42;100.00
45441;BME280;31189;38.790;-77.084;2022-07-17T03:46:42;101540.16;;;25.87;100.00
45441;BME280;31189;38.790;-77.084;2022-07-17T03:49:10;101539.53;;;26.41;100.00
45441;BME280;31189;38.790;-77.084;2022-07-17T03:51:38;101535.16;;;26.84;100.00
45441;BME280;31189;38.790;-77.084;2022-07-17T03:54:07;101534.76;;;27.06;99.81
45441;BME280;31189;38.790;-77.084;2022-07-17T03:56:35;101538.15;;;26.39;100.00
45441;BME280;31189;38.790;-77.084;2022-07-17T03:59:02;101539.85;;;26.45;100.00
45441;BME280;31189;38.790;-77.084;2022-07-17T04:01:30;101538.62;;;26.56;100.00
45441;BME280;31189;38.790;-77.084;2022-07-17T04:03:58;101531.73;;;26.00;100.00
45441;BME280;31189;38.790;-77.084;2022-07-17T04:06:27;101523.32;;;25.99;100.00
45441;BME280;31189;38.790;-77.084;2022-07-17T04:08:55;101520.59;;;26.38;100.00
45441;BME280;31189;38.790;-77.084;2022-07-17T04:11:23;101516.28;;;26.31;100.00
45441;BME280;31189;38.790;-77.084;2022-07-17T04:13:51;101511.72;;;26.45;100.00
45441;BME280;31189;38.790;-77.084;2022-07-17T04:16:19;101500.21;;;26.07;100.00
45441;BME280;31189;38.790;-77.084;2022-07-17T04:18:47;101494.30;;;26.33;100.00
45441;BME280;31189;38.790;-77.084;2022-07-17T04:21:15;101486.29;;;26.05;100.00
45441;BME280;31189;38.790;-77.084;2022-07-17T04:23:43;101483.92;;;25.83;100.00
45441;BME280;31189;38.790;-77.084;2022-07-17T04:26:11;101477.99;;;25.61;100.00
45441;BME280;31189;38.790;-77.084;2022-07-17T04:28:39;101477.63;;;25.64;100.00
45441;BME280;31189;38.790;-77.084;2022-07-17T04:31:08;101480.53;;;25.71;100.00
45441;BME280;31189;38.790;-77.084;2022-07-17T04:33:36;101482.93;;;25.92;100.00
45441;BME280;31189;38.790;-77.084;2022-07-17T04:36:04;101476.13;;;25.21;100.00
45441;BME280;31189;38.790;-77.084;2022-07-17T04:38:31;101461.89;;;25.36;100.00
45441;BME280;31189;38.790;-77.084;2022-07-17T04:40:59;101455.13;;;24.43;100.00
45441;BME280;31189;38.790;-77.084;2022-07-17T04:43:27;101449.20;;;23.40;100.00
45441;BME280;31189;38.790;-77.084;2022-07-17T04:45:55;101453.79;;;24.38;100.00
45441;BME280;31189;38.790;-77.084;2022-07-17T04:48:23;101454.44;;;24.19;100.00
45441;BME280;31189;38.790;-77.084;2022-07-17T04:50:51;101454.14;;;23.96;100.00
45441;BME280;31189;38.790;-77.084;2022-07-17T04:53:19;101447.41;;;24.83;100.00
45441;BME280;31189;38.790;-77.084;2022-07-17T04:55:48;101454.92;;;24.93;100.00
45441;BME280;31189;38.790;-77.084;2022-07-17T04:58:15;101464.75;;;23.67;100.00
45441;BME280;31189;38.790;-77.084;2022-07-17T05:00:43;101458.07;;;24.69;100.00
45441;BME280;31189;38.790;-77.084;2022-07-17T05:03:11;101462.68;;;25.16;100.00
45441;BME280;31189;38.790;-77.084;2022-07-17T05:05:39;101469.79;;;24.09;100.00
45441;BME280;31189;38.790;-77.084;2022-07-17T05:08:07;101469.16;;;25.17;100.00
45441;BME280;31189;38.790;-77.084;2022-07-17T05:10:35;101463.73;;;25.96;100.00
45441;BME280;31189;38.790;-77.084;2022-07-17T05:13:04;101468.40;;;25.27;100.00
45441;BME280;31189;38.790;-77.084;2022-07-17T05:15:32;101476.89;;;26.13;100.00
45441;BME280;31189;38.790;-77.084;2022-07-17T05:18:00;101478.88;;;26.36;100.00
45441;BME280;31189;38.790;-77.084;2022-07-17T05:20:28;101484.83;;;26.02;100.00
45441;BME280;31189;38.790;-77.084;2022-07-17T05:22:56;101490.40;;;25.93;100.00
45441;BME280;31189;38.790;-77.084;2022-07-17T05:25:24;101488.22;;;26.31;100.00
45441;BME280;31189;38.790;-77.084;2022-07-17T05:27:52;101485.34;;;26.56;100.00
45441;BME280;31189;38.790;-77.084;2022-07-17T05:30:20;101491.23;;;26.69;100.00
45441;BME280;31189;38.790;-77.084;2022-07-17T05:32:47;101493.76;;;27.19;100.00
45441;BME280;31189;38.790;-77.084;2022-07-17T05:35:15;101490.42;;;26.98;100.00
45441;BME280;31189;38.790;-77.084;2022-07-17T05:37:43;101489.26;;;26.85;100.00
45441;BME280;31189;38.790;-77.084;2022-07-17T05:40:11;101489.47;;;27.31;100.00
45441;BME280;31189;38.790;-77.084;2022-07-17T05:42:39;101484.02;;;26.90;100.00
45441;BME280;31189;38.790;-77.084;2022-07-17T05:45:08;101484.51;;;27.00;100.00
45441;BME280;31189;38.790;-77.084;2022-07-17T05:47:36;101484.87;;;27.15;100.00
45441;BME280;31189;38.790;-77.084;2022-07-17T05:50:09;101483.91;;;27.12;100.00
45441;BME280;31189;38.790;-77.084;2022-07-17T05:52:38;101482.55;;;26.90;100.00
45441;BME280;31189;38.790;-77.084;2022-07-17T05:55:06;101485.15;;;26.65;100.00
45441;BME280;31189;38.790;-77.084;2022-07-17T05:57:35;101482.09;;;27.21;100.00
45441;BME280;31189;38.790;-77.084;2022-07-17T06:00:05;101487.10;;;27.68;98.79
45441;BME280;31189;38.790;-77.084;2022-07-17T06:02:33;101482.90;;;27.74;99.42
45441;BME280;31189;38.790;-77.084;2022-07-17T06:05:01;101488.81;;;26.96;100.00
45441;BME280;31189;38.790;-77.084;2022-07-17T06:07:29;101484.92;;;27.63;100.00
45441;BME280;31189;38.790;-77.084;2022-07-17T06:09:57;101482.14;;;27.78;99.63
45441;BME280;31189;38.790;-77.084;2022-07-17T06:12:25;101480.91;;;27.56;99.65
45441;BME280;31189;38.790;-77.084;2022-07-17T06:14:53;101480.12;;;27.54;100.00
45441;BME280;31189;38.790;-77.084;2022-07-17T06:17:20;101480.37;;;26.87;100.00
45441;BME280;31189;38.790;-77.084;2022-07-17T06:19:49;101480.68;;;26.96;100.00
45441;BME280;31189;38.790;-77.084;2022-07-17T06:22:16;101476.44;;;27.50;100.00
45441;BME280;31189;38.790;-77.084;2022-07-17T06:24:44;101475.71;;;27.41;100.00
45441;BME280;31189;38.790;-77.084;2022-07-17T06:27:12;101468.38;;;26.64;100.00
45441;BME280;31189;38.790;-77.084;2022-07-17T06:29:40;101460.87;;;26.97;100.00
45441;BME280;31189;38.790;-77.084;2022-07-17T06:32:09;101452.66;;;26.72;100.00
45441;BME280;31189;38.790;-77.084;2022-07-17T06:34:37;101446.83;;;26.66;100.00
45441;BME280;31189;38.790;-77.084;2022-07-17T06:37:05;101441.47;;;26.38;100.00
45441;BME280;31189;38.790;-77.084;2022-07-17T06:39:33;101437.02;;;26.72;100.00
45441;BME280;31189;38.790;-77.084;2022-07-17T06:42:01;101440.32;;;26.59;100.00
45441;BME280;31189;38.790;-77.084;2022-07-17T06:44:29;101440.55;;;26.50;100.00
45441;BME280;31189;38.790;-77.084;2022-07-17T06:46:57;101436.83;;;26.41;100.00
45441;BME280;31189;38.790;-77.084;2022-07-17T06:49:26;101431.99;;;26.13;100.00
45441;BME280;31189;38.790;-77.084;2022-07-17T06:51:54;101427.78;;;25.84;100.00
45441;BME280;31189;38.790;-77.084;2022-07-17T06:54:22;101425.23;;;26.17;100.00
45441;BME280;31189;38.790;-77.084;2022-07-17T06:56:50;101420.47;;;26.06;100.00
45441;BME280;31189;38.790;-77.084;2022-07-17T06:59:18;101416.64;;;26.02;100.00
45441;BME280;31189;38.790;-77.084;2022-07-17T07:01:46;101416.02;;;26.02;100.00
45441;BME280;31189;38.790;-77.084;2022-07-17T07:04:14;101427.55;;;25.43;100.00
45441;BME280;31189;38.790;-77.084;2022-07-17T07:06:42;101431.47;;;23.79;100.00
45441;BME280;31189;38.790;-77.084;2022-07-17T07:09:10;101425.01;;;25.19;100.00
45441;BME280;31189;38.790;-77.084;2022-07-17T07:11:39;101425.09;;;25.77;100.00
45441;BME280;31189;38.790;-77.084;2022-07-17T07:14:07;101431.82;;;24.16;100.00
45441;BME280;31189;38.790;-77.084;2022-07-17T07:16:35;101430.11;;;25.26;100.00
45441;BME280;31189;38.790;-77.084;2022-07-17T07:19:04;101421.45;;;25.91;100.00
45441;BME280;31189;38.790;-77.084;2022-07-17T07:21:32;101420.13;;;25.29;100.00
45441;BME280;31189;38.790;-77.084;2022-07-17T07:24:00;101414.24;;;25.79;100.00
45441;BME280;31189;38.790;-77.084;2022-07-17T07:26:28;101412.36;;;25.39;100.00
45441;BME280;31189;38.790;-77.084;2022-07-17T07:28:55;101409.70;;;25.85;100.00
45441;BME280;31189;38.790;-77.084;2022-07-17T07:31:23;101409.14;;;26.17;100.00
45441;BME280;31189;38.790;-77.084;2022-07-17T07:33:51;101411.25;;;26.47;100.00
45441;BME280;31189;38.790;-77.084;2022-07-17T07:36:19;101414.87;;;26.75;100.00
45441;BME280;31189;38.790;-77.084;2022-07-17T07:38:48;101415.41;;;26.70;100.00
45441;BME280;31189;38.790;-77.084;2022-07-17T07:41:16;101408.96;;;26.70;100.00
45441;BME280;31189;38.790;-77.084;2022-07-17T07:43:44;101409.37;;;26.83;100.00
45441;BME280;31189;38.790;-77.084;2022-07-17T07:46:12;101406.95;;;26.67;100.00
45441;BME280;31189;38.790;-77.084;2022-07-17T07:48:40;101401.00;;;27.00;100.00
45441;BME280;31189;38.790;-77.084;2022-07-17T07:51:07;101390.23;;;26.30;100.00
45441;BME280;31189;38.790;-77.084;2022-07-17T07:53:35;101391.43;;;27.00;100.00
45441;BME280;31189;38.790;-77.084;2022-07-17T07:56:04;101392.67;;;27.12;100.00
45441;BME280;31189;38.790;-77.084;2022-07-17T07:58:32;101393.12;;;26.74;100.00
45441;BME280;31189;38.790;-77.084;2022-07-17T08:01:00;101389.05;;;26.47;100.00
45441;BME280;31189;38.790;-77.084;2022-07-17T08:03:28;101382.16;;;26.69;100.00
45441;BME280;31189;38.790;-77.084;2022-07-17T08:05:55;101374.17;;;27.08;100.00
45441;BME280;31189;38.790;-77.084;2022-07-17T08:08:22;101366.02;;;27.19;100.00
45441;BME280;31189;38.790;-77.084;2022-07-17T08:10:50;101372.73;;;26.84;100.00
45441;BME280;31189;38.790;-77.084;2022-07-17T08:13:18;101374.03;;;26.77;100.00
45441;BME280;31189;38.790;-77.084;2022-07-17T08:15:45;101365.33;;;26.87;100.00
45441;BME280;31189;38.790;-77.084;2022-07-17T08:18:13;101364.72;;;26.80;100.00
45441;BME280;31189;38.790;-77.084;2022-07-17T08:20:41;101377.60;;;25.83;100.00
45441;BME280;31189;38.790;-77.084;2022-07-17T08:23:08;101379.52;;;26.39;100.00
45441;BME280;31189;38.790;-77.084;2022-07-17T08:25:37;101378.24;;;27.35;99.63
45441;BME280;31189;38.790;-77.084;2022-07-17T08:28:05;101379.96;;;27.04;100.00
45441;BME280;31189;38.790;-77.084;2022-07-17T08:30:34;101384.09;;;27.08;100.00
45441;BME280;31189;38.790;-77.084;2022-07-17T08:33:03;101389.63;;;27.07;100.00
45441;BME280;31189;38.790;-77.084;2022-07-17T08:35:30;101396.25;;;26.84;100.00
45441;BME280;31189;38.790;-77.084;2022-07-17T08:37:58;101400.18;;;27.10;100.00
45441;BME280;31189;38.790;-77.084;2022-07-17T08:40:28;101399.68;;;27.48;99.60
45441;BME280;31189;38.790;-77.084;2022-07-17T08:42:57;101399.86;;;27.32;99.34
45441;BME280;31189;38.790;-77.084;2022-07-17T08:45:25;101399.33;;;27.13;98.95
45441;BME280;31189;38.790;-77.084;2022-07-17T08:47:55;101399.19;;;27.44;99.62
45441;BME280;31189;38.790;-77.084;2022-07-17T08:50:24;101399.82;;;27.02;100.00
45441;BME280;31189;38.790;-77.084;2022-07-17T08:52:53;101403.46;;;26.57;100.00
45441;BME280;31189;38.790;-77.084;2022-07-17T08:55:20;101400.30;;;27.00;100.00
45441;BME280;31189;38.790;-77.084;2022-07-17T08:57:49;101395.17;;;27.14;99.92
45441;BME280;31189;38.790;-77.084;2022-07-17T09:00:18;101392.76;;;26.76;100.00
45441;BME280;31189;38.790;-77.084;2022-07-17T09:02:56;101397.68;;;27.42;98.76
45441;BME280;31189;38.790;-77.084;2022-07-17T09:05:27;101393.99;;;27.40;98.66
45441;BME280;31189;38.790;-77.084;2022-07-17T09:07:56;101392.84;;;26.89;100.00
45441;BME280;31189;38.790;-77.084;2022-07-17T09:10:34;101395.95;;;26.97;99.28
45441;BME280;31189;38.790;-77.084;2022-07-17T09:13:14;101395.04;;;27.49;97.97
45441;BME280;31189;38.790;-77.084;2022-07-17T09:15:42;101401.80;;;27.47;97.73
45441;BME280;31189;38.790;-77.084;2022-07-17T09:18:10;101405.60;;;27.41;97.08
45441;BME280;31189;38.790;-77.084;2022-07-17T09:20:43;101405.56;;;27.41;98.19
45441;BME280;31189;38.790;-77.084;2022-07-17T09:23:11;101407.84;;;27.01;98.87
45441;BME280;31189;38.790;-77.084;2022-07-17T09:25:50;101412.90;;;26.17;98.57
45441;BME280;31189;38.790;-77.084;2022-07-17T09:28:19;101413.52;;;27.41;97.40
45441;BME280;31189;38.790;-77.084;2022-07-17T09:30:49;101420.84;;;27.72;95.94
45441;BME280;31189;38.790;-77.084;2022-07-17T09:33:19;101418.63;;;27.69;96.95
45441;BME280;31189;38.790;-77.084;2022-07-17T09:35:48;101416.58;;;26.97;98.76
45441;BME280;31189;38.790;-77.084;2022-07-17T09:38:33;101411.16;;;26.96;100.00
45441;BME280;31189;38.790;-77.084;2022-07-17T09:41:04;101405.90;;;27.07;99.77
45441;BME280;31189;38.790;-77.084;2022-07-17T09:43:40;101409.01;;;27.38;98.53
45441;BME280;31189;38.790;-77.084;2022-07-17T09:46:09;101413.05;;;27.14;98.62
45441;BME280;31189;38.790;-77.084;2022-07-17T09:48:42;101418.85;;;27.12;97.90
45441;BME280;31189;38.790;-77.084;2022-07-17T09:51:11;101421.90;;;27.16;97.97
45441;BME280;31189;38.790;-77.084;2022-07-17T09:53:40;101419.36;;;27.61;98.33
45441;BME280;31189;38.790;-77.084;2022-07-17T09:56:12;101420.56;;;26.81;99.77
45441;BME280;31189;38.790;-77.084;2022-07-17T09:58:44;101419.78;;;26.91;98.64
45441;BME280;31189;38.790;-77.084;2022-07-17T10:01:14;101420.25;;;27.09;98.22
45441;BME280;31189;38.790;-77.084;2022-07-17T10:03:42;101423.30;;;27.47;97.51
45441;BME280;31189;38.790;-77.084;2022-07-17T10:06:11;101427.00;;;27.42;96.51
45441;BME280;31189;38.790;-77.084;2022-07-17T10:08:39;101427.94;;;27.27;97.26
45441;BME280;31189;38.790;-77.084;2022-07-17T10:11:12;101425.45;;;27.15;96.63
45441;BME280;31189;38.790;-77.084;2022-07-17T10:13:42;101422.74;;;27.64;96.69
45441;BME280;31189;38.790;-77.084;2022-07-17T10:16:12;101421.93;;;27.17;96.53
45441;BME280;31189;38.790;-77.084;2022-07-17T10:18:41;101419.99;;;26.92;97.27
45441;BME280;31189;38.790;-77.084;2022-07-17T10:21:14;101418.09;;;27.02;97.32
45441;BME280;31189;38.790;-77.084;2022-07-17T10:23:47;101414.75;;;27.41;96.39
45441;BME280;31189;38.790;-77.084;2022-07-17T10:26:14;101415.09;;;27.13;96.56
45441;BME280;31189;38.790;-77.084;2022-07-17T10:28:45;101413.48;;;27.44;97.00
45441;BME280;31189;38.790;-77.084;2022-07-17T10:31:23;101417.42;;;27.67;96.16
45441;BME280;31189;38.790;-77.084;2022-07-17T10:33:57;101418.20;;;27.64;96.22
45441;BME280;31189;38.790;-77.084;2022-07-17T10:36:42;101422.08;;;27.74;95.33
45441;BME280;31189;38.790;-77.084;2022-07-17T10:39:13;101422.32;;;27.23;96.65
45441;BME280;31189;38.790;-77.084;2022-07-17T10:41:42;101420.06;;;27.22;96.39
45441;BME280;31189;38.790;-77.084;2022-07-17T10:44:10;101412.66;;;27.27;96.72
45441;BME280;31189;38.790;-77.084;2022-07-17T10:46:38;101415.35;;;27.58;96.71
45441;BME280;31189;38.790;-77.084;2022-07-17T10:49:06;101425.50;;;27.17;96.98
45441;BME280;31189;38.790;-77.084;2022-07-17T10:51:48;101432.32;;;26.71;96.39
45441;BME280;31189;38.790;-77.084;2022-07-17T10:54:16;101435.85;;;27.05;95.68
45441;BME280;31189;38.790;-77.084;2022-07-17T10:56:44;101436.90;;;27.35;96.00
45441;BME280;31189;38.790;-77.084;2022-07-17T10:59:12;101436.85;;;27.55;94.60
45441;BME280;31189;38.790;-77.084;2022-07-17T11:01:41;101436.83;;;27.50;96.28
45441;BME280;31189;38.790;-77.084;2022-07-17T11:04:09;101437.88;;;27.91;94.30
45441;BME280;31189;38.790;-77.084;2022-07-17T11:06:38;101438.80;;;27.80;94.79
45441;BME280;31189;38.790;-77.084;2022-07-17T11:09:08;101433.99;;;27.65;96.22
45441;BME280;31189;38.790;-77.084;2022-07-17T11:11:38;101441.93;;;27.46;98.40
45441;BME280;31189;38.790;-77.084;2022-07-17T11:14:12;101441.84;;;27.53;97.83
45441;BME280;31189;38.790;-77.084;2022-07-17T11:16:45;101443.16;;;27.90;95.86
45441;BME280;31189;38.790;-77.084;2022-07-17T11:19:21;101441.84;;;27.18;97.53
45441;BME280;31189;38.790;-77.084;2022-07-17T11:21:50;101435.80;;;27.35;97.26
45441;BME280;31189;38.790;-77.084;2022-07-17T11:24:18;101437.30;;;27.80;97.46
45441;BME280;31189;38.790;-77.084;2022-07-17T11:26:49;101445.21;;;27.69;97.28
45441;BME280;31189;38.790;-77.084;2022-07-17T11:29:17;101452.40;;;27.91;97.53
45441;BME280;31189;38.790;-77.084;2022-07-17T11:31:45;101456.42;;;28.00;97.49
45441;BME280;31189;38.790;-77.084;2022-07-17T11:34:13;101457.10;;;28.08;96.71
45441;BME280;31189;38.790;-77.084;2022-07-17T11:36:43;101465.73;;;28.57;96.52
45441;BME280;31189;38.790;-77.084;2022-07-17T11:39:12;101464.38;;;27.53;100.00
45441;BME280;31189;38.790;-77.084;2022-07-17T11:41:42;101463.74;;;27.68;98.71
45441;BME280;31189;38.790;-77.084;2022-07-17T11:44:13;101470.07;;;27.67;97.64
45441;BME280;31189;38.790;-77.084;2022-07-17T11:46:42;101472.37;;;28.34;97.06
45441;BME280;31189;38.790;-77.084;2022-07-17T11:49:12;101475.28;;;27.73;96.54
45441;BME280;31189;38.790;-77.084;2022-07-17T11:51:50;101478.86;;;28.17;97.05
45441;BME280;31189;38.790;-77.084;2022-07-17T11:54:18;101481.11;;;28.43;95.78
45441;BME280;31189;38.790;-77.084;2022-07-17T11:56:53;101484.64;;;27.99;96.68
45441;BME280;31189;38.790;-77.084;2022-07-17T11:59:27;101482.82;;;27.49;100.00
45441;BME280;31189;38.790;-77.084;2022-07-17T12:01:56;101479.24;;;27.93;98.25
45441;BME280;31189;38.790;-77.084;2022-07-17T12:04:24;101476.71;;;28.08;97.97
45441;BME280;31189;38.790;-77.084;2022-07-17T12:07:00;101470.44;;;27.97;97.46
45441;BME280;31189;38.790;-77.084;2022-07-17T12:09:30;101464.81;;;28.42;95.25
45441;BME280;31189;38.790;-77.084;2022-07-17T12:11:57;101462.62;;;28.42;95.71
45441;BME280;31189;38.790;-77.084;2022-07-17T12:14:26;101468.82;;;28.36;94.91
45441;BME280;31189;38.790;-77.084;2022-07-17T12:16:56;101470.62;;;28.61;95.36
45441;BME280;31189;38.790;-77.084;2022-07-17T12:19:25;101459.15;;;27.79;97.54
45441;BME280;31189;38.790;-77.084;2022-07-17T12:21:56;101453.81;;;28.22;96.99
45441;BME280;31189;38.790;-77.084;2022-07-17T12:24:27;101453.61;;;27.71;98.08
45441;BME280;31189;38.790;-77.084;2022-07-17T12:26:57;101456.53;;;27.73;98.16
45441;BME280;31189;38.790;-77.084;2022-07-17T12:29:26;101459.31;;;28.31;97.09
45441;BME280;31189;38.790;-77.084;2022-07-17T12:32:03;101464.90;;;28.09;99.25